sensor_id;sensor_type;location;lat;lon;timestamp;P1;durP1;ratioP1;P2;durP2;ratioP2
3189;SDS011;1606;51.946;10.558;2023-06-04T00:00:35;8.03;;;2.40;;
3189;SDS011;1606;51.946;10.558;2023-06-04T00:03:03;8.57;;;2.27;;
3189;SDS011;1606;51.946;10.558;2023-06-04T00:05:31;8.40;;;2.50;;
3189;SDS011;1606;51.946;10.558;2023-06-04T00:07:59;8.00;;;2.50;;
3189;SDS011;1606;51.946;10.558;2023-06-04T00:10:28;6.47;;;2.23;;
3189;SDS011;1606;51.946;10.558;2023-06-04T00:12:57;8.00;;;2.20;;
3189;SDS011;1606;51.946;10.558;2023-06-04T00:15:25;6.33;;;2.10;;
3189;SDS011;1606;51.946;10.558;2023-06-04T00:17:52;8.37;;;2.53;;
3189;SDS011;1606;51.946;10.558;2023-06-04T00:20:23;6.63;;;2.53;;
3189;SDS011;1606;51.946;10.558;2023-06-04T00:22:50;7.40;;;2.60;;
3189;SDS011;1606;51.946;10.558;2023-06-04T00:25:18;9.27;;;2.20;;
3189;SDS011;1606;51.946;10.558;2023-06-04T00:27:47;7.43;;;2.47;;
3189;SDS011;1606;51.946;10.558;2023-06-04T00:30:15;7.10;;;2.53;;
3189;SDS011;1606;51.946;10.558;2023-06-04T00:32:43;7.20;;;2.27;;
3189;SDS011;1606;51.946;10.558;2023-06-04T00:35:13;6.40;;;2.33;;
3189;SDS011;1606;51.946;10.558;2023-06-04T00:37:41;7.60;;;2.30;;
3189;SDS011;1606;51.946;10.558;2023-06-04T00:40:09;7.07;;;2.20;;
3189;SDS011;1606;51.946;10.558;2023-06-04T00:42:37;7.57;;;2.47;;
3189;SDS011;1606;51.946;10.558;2023-06-04T00:45:07;6.60;;;2.10;;
3189;SDS011;1606;51.946;10.558;2023-06-04T00:47:36;7.50;;;2.60;;
3189;SDS011;1606;51.946;10.558;2023-06-04T00:50:04;8.43;;;2.23;;
3189;SDS011;1606;51.946;10.558;2023-06-04T00:52:34;7.00;;;2.90;;
3189;SDS011;1606;51.946;10.558;2023-06-04T00:55:02;8.60;;;2.40;;
3189;SDS011;1606;51.946;10.558;2023-06-04T00:57:30;9.97;;;2.57;;
3189;SDS011;1606;51.946;10.558;2023-06-04T00:59:58;8.70;;;2.33;;
3189;SDS011;1606;51.946;10.558;2023-06-04T01:02:27;7.13;;;2.30;;
3189;SDS011;1606;51.946;10.558;2023-06-04T01:04:58;6.50;;;2.30;;
3189;SDS011;1606;51.946;10.558;2023-06-04T01:07:34;7.63;;;2.20;;
3189;SDS011;1606;51.946;10.558;2023-06-04T01:10:03;9.40;;;2.63;;
3189;SDS011;1606;51.946;10.558;2023-06-04T01:12:32;6.43;;;2.17;;
3189;SDS011;1606;51.946;10.558;2023-06-04T01:15:00;7.30;;;2.60;;
3189;SDS011;1606;51.946;10.558;2023-06-04T01:17:31;6.60;;;2.37;;
3189;SDS011;1606;51.946;10.558;2023-06-04T01:22:56;8.50;;;2.40;;
3189;SDS011;1606;51.946;10.558;2023-06-04T01:25:37;8.53;;;3.37;;
3189;SDS011;1606;51.946;10.558;2023-06-04T01:28:07;10.30;;;3.03;;
3189;SDS011;1606;51.946;10.558;2023-06-04T01:30:37;8.70;;;2.40;;
3189;SDS011;1606;51.946;10.558;2023-06-04T01:33:11;7.57;;;2.87;;
3189;SDS011;1606;51.946;10.558;2023-06-04T01:35:39;6.77;;;2.47;;
3189;SDS011;1606;51.946;10.558;2023-06-04T01:38:07;15.70;;;2.37;;
3189;SDS011;1606;51.946;10.558;2023-06-04T01:40:36;8.17;;;2.60;;
3189;SDS011;1606;51.946;10.558;2023-06-04T01:43:04;6.97;;;2.60;;
3189;SDS011;1606;51.946;10.558;2023-06-04T01:45:31;8.23;;;2.63;;
3189;SDS011;1606;51.946;10.558;2023-06-04T01:48:00;7.20;;;2.23;;
3189;SDS011;1606;51.946;10.558;2023-06-04T01:50:31;9.77;;;2.37;;
3189;SDS011;1606;51.946;10.558;2023-06-04T01:52:59;7.10;;;2.70;;
3189;SDS011;1606;51.946;10.558;2023-06-04T01:55:26;8.63;;;3.10;;
3189;SDS011;1606;51.946;10.558;2023-06-04T01:57:59;9.37;;;2.70;;
3189;SDS011;1606;51.946;10.558;2023-06-04T02:00:27;7.60;;;3.23;;
3189;SDS011;1606;51.946;10.558;2023-06-04T02:02:56;8.13;;;2.20;;
3189;SDS011;1606;51.946;10.558;2023-06-04T02:05:25;6.47;;;2.30;;
3189;SDS011;1606;51.946;10.558;2023-06-04T02:07:55;6.90;;;2.57;;
3189;SDS011;1606;51.946;10.558;2023-06-04T02:10:23;6.60;;;2.20;;
3189;SDS011;1606;51.946;10.558;2023-06-04T02:12:55;8.17;;;2.90;;
3189;SDS011;1606;51.946;10.558;2023-06-04T02:15:24;6.83;;;2.83;;
3189;SDS011;1606;51.946;10.558;2023-06-04T02:17:54;9.20;;;3.20;;
3189;SDS011;1606;51.946;10.558;2023-06-04T02:20:24;7.70;;;2.73;;
3189;SDS011;1606;51.946;10.558;2023-06-04T02:22:54;7.00;;;2.47;;
3189;SDS011;1606;51.946;10.558;2023-06-04T02:25:23;10.63;;;2.42;;
3189;SDS011;1606;51.946;10.558;2023-06-04T02:27:51;6.90;;;2.50;;
3189;SDS011;1606;51.946;10.558;2023-06-04T02:30:19;6.50;;;2.50;;
3189;SDS011;1606;51.946;10.558;2023-06-04T02:32:46;6.40;;;2.53;;
3189;SDS011;1606;51.946;10.558;2023-06-04T02:35:18;5.90;;;2.00;;
3189;SDS011;1606;51.946;10.558;2023-06-04T02:37:47;6.87;;;2.40;;
3189;SDS011;1606;51.946;10.558;2023-06-04T02:40:16;6.67;;;2.80;;
3189;SDS011;1606;51.946;10.558;2023-06-04T02:42:44;7.53;;;2.20;;
3189;SDS011;1606;51.946;10.558;2023-06-04T02:45:12;7.27;;;2.40;;
3189;SDS011;1606;51.946;10.558;2023-06-04T02:47:39;7.77;;;2.90;;
3189;SDS011;1606;51.946;10.558;2023-06-04T02:50:08;10.93;;;3.07;;
3189;SDS011;1606;51.946;10.558;2023-06-04T02:52:36;8.40;;;2.73;;
3189;SDS011;1606;51.946;10.558;2023-06-04T02:55:04;8.13;;;2.90;;
3189;SDS011;1606;51.946;10.558;2023-06-04T02:57:35;7.33;;;3.10;;
3189;SDS011;1606;51.946;10.558;2023-06-04T03:00:03;7.60;;;2.53;;
3189;SDS011;1606;51.946;10.558;2023-06-04T03:02:38;7.97;;;2.40;;
3189;SDS011;1606;51.946;10.558;2023-06-04T03:05:08;7.57;;;2.60;;
3189;SDS011;1606;51.946;10.558;2023-06-04T03:07:39;6.80;;;2.53;;
3189;SDS011;1606;51.946;10.558;2023-06-04T03:10:09;6.93;;;2.50;;
3189;SDS011;1606;51.946;10.558;2023-06-04T03:12:38;7.80;;;2.43;;
3189;SDS011;1606;51.946;10.558;2023-06-04T03:15:07;6.80;;;2.60;;
3189;SDS011;1606;51.946;10.558;2023-06-04T03:17:36;7.93;;;2.77;;
3189;SDS011;1606;51.946;10.558;2023-06-04T03:20:04;7.70;;;2.97;;
3189;SDS011;1606;51.946;10.558;2023-06-04T03:22:33;7.37;;;3.33;;
3189;SDS011;1606;51.946;10.558;2023-06-04T03:25:02;6.23;;;2.40;;
3189;SDS011;1606;51.946;10.558;2023-06-04T03:27:31;6.87;;;2.57;;
3189;SDS011;1606;51.946;10.558;2023-06-04T03:30:01;11.27;;;3.10;;
3189;SDS011;1606;51.946;10.558;2023-06-04T03:32:29;9.50;;;2.70;;
3189;SDS011;1606;51.946;10.558;2023-06-04T03:34:57;9.83;;;2.47;;
3189;SDS011;1606;51.946;10.558;2023-06-04T03:37:25;8.07;;;3.30;;
3189;SDS011;1606;51.946;10.558;2023-06-04T03:39:55;7.43;;;2.90;;
3189;SDS011;1606;51.946;10.558;2023-06-04T03:42:22;8.97;;;2.90;;
3189;SDS011;1606;51.946;10.558;2023-06-04T03:44:50;7.50;;;2.50;;
3189;SDS011;1606;51.946;10.558;2023-06-04T03:47:20;8.50;;;2.70;;
3189;SDS011;1606;51.946;10.558;2023-06-04T03:49:48;7.77;;;2.93;;
3189;SDS011;1606;51.946;10.558;2023-06-04T03:52:16;6.77;;;2.43;;
3189;SDS011;1606;51.946;10.558;2023-06-04T03:54:44;8.23;;;2.70;;
3189;SDS011;1606;51.946;10.558;2023-06-04T03:57:12;16.03;;;4.23;;
3189;SDS011;1606;51.946;10.558;2023-06-04T03:59:39;8.57;;;3.17;;
3189;SDS011;1606;51.946;10.558;2023-06-04T04:02:07;9.10;;;2.97;;
3189;SDS011;1606;51.946;10.558;2023-06-04T04:04:36;7.27;;;2.47;;
3189;SDS011;1606;51.946;10.558;2023-06-04T04:07:04;7.90;;;2.53;;
3189;SDS011;1606;51.946;10.558;2023-06-04T04:09:32;9.00;;;3.97;;
3189;SDS011;1606;51.946;10.558;2023-06-04T04:12:00;7.13;;;2.80;;
3189;SDS011;1606;51.946;10.558;2023-06-04T04:14:28;9.53;;;3.40;;
3189;SDS011;1606;51.946;10.558;2023-06-04T04:16:55;8.70;;;3.13;;
3189;SDS011;1606;51.946;10.558;2023-06-04T04:19:24;6.70;;;2.90;;
3189;SDS011;1606;51.946;10.558;2023-06-04T04:21:56;7.63;;;2.80;;
3189;SDS011;1606;51.946;10.558;2023-06-04T04:24:23;7.67;;;3.30;;
3189;SDS011;1606;51.946;10.558;2023-06-04T04:26:52;11.07;;;2.80;;
3189;SDS011;1606;51.946;10.558;2023-06-04T04:29:20;8.53;;;2.83;;
3189;SDS011;1606;51.946;10.558;2023-06-04T04:31:51;7.17;;;2.90;;
3189;SDS011;1606;51.946;10.558;2023-06-04T04:34:19;9.30;;;2.80;;
3189;SDS011;1606;51.946;10.558;2023-06-04T04:36:47;7.50;;;2.60;;
3189;SDS011;1606;51.946;10.558;2023-06-04T04:39:19;6.47;;;2.37;;
3189;SDS011;1606;51.946;10.558;2023-06-04T04:41:49;7.87;;;3.00;;
3189;SDS011;1606;51.946;10.558;2023-06-04T04:44:17;7.90;;;2.93;;
3189;SDS011;1606;51.946;10.558;2023-06-04T04:46:45;8.20;;;2.77;;
3189;SDS011;1606;51.946;10.558;2023-06-04T04:49:13;8.00;;;3.40;;
3189;SDS011;1606;51.946;10.558;2023-06-04T04:51:41;9.10;;;3.20;;
3189;SDS011;1606;51.946;10.558;2023-06-04T04:54:08;9.13;;;2.70;;
3189;SDS011;1606;51.946;10.558;2023-06-04T04:56:38;7.60;;;2.63;;
3189;SDS011;1606;51.946;10.558;2023-06-04T04:59:06;12.13;;;2.83;;
3189;SDS011;1606;51.946;10.558;2023-06-04T05:01:33;6.80;;;2.27;;
3189;SDS011;1606;51.946;10.558;2023-06-04T05:04:02;6.80;;;2.60;;
3189;SDS011;1606;51.946;10.558;2023-06-04T05:06:32;7.70;;;2.80;;
3189;SDS011;1606;51.946;10.558;2023-06-04T05:09:00;8.20;;;2.60;;
3189;SDS011;1606;51.946;10.558;2023-06-04T05:11:28;8.60;;;3.13;;
3189;SDS011;1606;51.946;10.558;2023-06-04T05:13:57;6.60;;;2.80;;
3189;SDS011;1606;51.946;10.558;2023-06-04T05:16:24;7.17;;;2.73;;
3189;SDS011;1606;51.946;10.558;2023-06-04T05:18:54;8.00;;;2.70;;
3189;SDS011;1606;51.946;10.558;2023-06-04T05:21:22;8.53;;;2.93;;
3189;SDS011;1606;51.946;10.558;2023-06-04T05:23:51;9.90;;;3.97;;
3189;SDS011;1606;51.946;10.558;2023-06-04T05:26:19;9.17;;;3.20;;
3189;SDS011;1606;51.946;10.558;2023-06-04T05:28:49;7.70;;;2.70;;
3189;SDS011;1606;51.946;10.558;2023-06-04T05:31:18;7.20;;;2.73;;
3189;SDS011;1606;51.946;10.558;2023-06-04T05:33:47;8.00;;;2.50;;
3189;SDS011;1606;51.946;10.558;2023-06-04T05:36:15;8.43;;;3.20;;
3189;SDS011;1606;51.946;10.558;2023-06-04T05:38:43;7.90;;;2.43;;
3189;SDS011;1606;51.946;10.558;2023-06-04T05:41:10;13.13;;;3.83;;
3189;SDS011;1606;51.946;10.558;2023-06-04T05:43:38;8.80;;;2.97;;
3189;SDS011;1606;51.946;10.558;2023-06-04T05:46:06;8.77;;;3.03;;
3189;SDS011;1606;51.946;10.558;2023-06-04T05:48:38;10.43;;;2.93;;
3189;SDS011;1606;51.946;10.558;2023-06-04T05:51:06;12.20;;;3.70;;
3189;SDS011;1606;51.946;10.558;2023-06-04T05:53:34;8.73;;;3.30;;
3189;SDS011;1606;51.946;10.558;2023-06-04T05:56:02;8.73;;;3.10;;
3189;SDS011;1606;51.946;10.558;2023-06-04T05:58:33;7.37;;;2.87;;
3189;SDS011;1606;51.946;10.558;2023-06-04T06:01:01;7.50;;;2.90;;
3189;SDS011;1606;51.946;10.558;2023-06-04T06:03:29;9.47;;;2.80;;
3189;SDS011;1606;51.946;10.558;2023-06-04T06:05:59;6.77;;;2.50;;
3189;SDS011;1606;51.946;10.558;2023-06-04T06:08:27;6.67;;;3.10;;
3189;SDS011;1606;51.946;10.558;2023-06-04T06:10:55;8.97;;;3.47;;
3189;SDS011;1606;51.946;10.558;2023-06-04T06:13:23;6.63;;;2.97;;
3189;SDS011;1606;51.946;10.558;2023-06-04T06:15:51;7.43;;;2.60;;
3189;SDS011;1606;51.946;10.558;2023-06-04T06:18:19;10.97;;;3.00;;
3189;SDS011;1606;51.946;10.558;2023-06-04T06:20:46;8.03;;;3.30;;
3189;SDS011;1606;51.946;10.558;2023-06-04T06:23:16;9.33;;;3.07;;
3189;SDS011;1606;51.946;10.558;2023-06-04T06:25:45;7.63;;;2.50;;
3189;SDS011;1606;51.946;10.558;2023-06-04T06:28:14;8.37;;;2.97;;
3189;SDS011;1606;51.946;10.558;2023-06-04T06:30:42;7.87;;;2.73;;
3189;SDS011;1606;51.946;10.558;2023-06-04T06:33:10;8.80;;;3.47;;
3189;SDS011;1606;51.946;10.558;2023-06-04T06:35:39;11.37;;;3.37;;
3189;SDS011;1606;51.946;10.558;2023-06-04T06:38:06;10.23;;;3.20;;
3189;SDS011;1606;51.946;10.558;2023-06-04T06:40:36;7.07;;;2.70;;
3189;SDS011;1606;51.946;10.558;2023-06-04T06:43:03;9.60;;;2.70;;
3189;SDS011;1606;51.946;10.558;2023-06-04T06:45:31;10.37;;;3.57;;
3189;SDS011;1606;51.946;10.558;2023-06-04T06:48:03;8.40;;;3.03;;
3189;SDS011;1606;51.946;10.558;2023-06-04T06:50:31;8.03;;;2.90;;
3189;SDS011;1606;51.946;10.558;2023-06-04T06:53:01;7.50;;;2.87;;
3189;SDS011;1606;51.946;10.558;2023-06-04T06:55:29;7.60;;;2.97;;
3189;SDS011;1606;51.946;10.558;2023-06-04T06:57:59;10.10;;;2.87;;
3189;SDS011;1606;51.946;10.558;2023-06-04T07:00:26;7.87;;;2.77;;
3189;SDS011;1606;51.946;10.558;2023-06-04T07:02:55;9.43;;;3.13;;
3189;SDS011;1606;51.946;10.558;2023-06-04T07:05:23;8.77;;;2.90;;
3189;SDS011;1606;51.946;10.558;2023-06-04T07:07:51;8.60;;;3.50;;
3189;SDS011;1606;51.946;10.558;2023-06-04T07:10:18;9.10;;;3.87;;
3189;SDS011;1606;51.946;10.558;2023-06-04T07:12:47;8.73;;;3.47;;
3189;SDS011;1606;51.946;10.558;2023-06-04T07:15:16;7.13;;;3.37;;
3189;SDS011;1606;51.946;10.558;2023-06-04T07:17:44;11.27;;;4.03;;
3189;SDS011;1606;51.946;10.558;2023-06-04T07:20:12;7.30;;;3.07;;
3189;SDS011;1606;51.946;10.558;2023-06-04T07:22:40;8.90;;;3.80;;
3189;SDS011;1606;51.946;10.558;2023-06-04T07:25:09;10.23;;;3.73;;
3189;SDS011;1606;51.946;10.558;2023-06-04T07:27:36;8.90;;;3.70;;
3189;SDS011;1606;51.946;10.558;2023-06-04T07:30:05;9.70;;;3.57;;
3189;SDS011;1606;51.946;10.558;2023-06-04T07:32:35;14.83;;;3.03;;
3189;SDS011;1606;51.946;10.558;2023-06-04T07:35:03;9.40;;;3.50;;
3189;SDS011;1606;51.946;10.558;2023-06-04T07:37:31;8.10;;;3.50;;
3189;SDS011;1606;51.946;10.558;2023-06-04T07:39:59;8.27;;;3.37;;
3189;SDS011;1606;51.946;10.558;2023-06-04T07:42:27;9.77;;;3.27;;
3189;SDS011;1606;51.946;10.558;2023-06-04T07:44:54;7.53;;;3.13;;
3189;SDS011;1606;51.946;10.558;2023-06-04T07:47:22;9.47;;;3.00;;
3189;SDS011;1606;51.946;10.558;2023-06-04T07:49:51;6.70;;;2.80;;
3189;SDS011;1606;51.946;10.558;2023-06-04T07:52:28;6.87;;;2.80;;
3189;SDS011;1606;51.946;10.558;2023-06-04T07:54:56;8.30;;;3.53;;
3189;SDS011;1606;51.946;10.558;2023-06-04T07:57:24;7.00;;;2.97;;
3189;SDS011;1606;51.946;10.558;2023-06-04T07:59:52;7.90;;;2.70;;
3189;SDS011;1606;51.946;10.558;2023-06-04T08:02:20;8.33;;;2.90;;
3189;SDS011;1606;51.946;10.558;2023-06-04T08:04:48;9.20;;;3.20;;
3189;SDS011;1606;51.946;10.558;2023-06-04T08:07:17;6.37;;;2.67;;
3189;SDS011;1606;51.946;10.558;2023-06-04T08:09:45;7.27;;;2.70;;
3189;SDS011;1606;51.946;10.558;2023-06-04T08:12:13;7.10;;;2.73;;
3189;SDS011;1606;51.946;10.558;2023-06-04T08:14:42;11.20;;;3.73;;
3189;SDS011;1606;51.946;10.558;2023-06-04T08:17:10;7.40;;;2.37;;
3189;SDS011;1606;51.946;10.558;2023-06-04T08:19:37;8.80;;;3.03;;
3189;SDS011;1606;51.946;10.558;2023-06-04T08:22:05;6.40;;;2.40;;
3189;SDS011;1606;51.946;10.558;2023-06-04T08:24:36;7.20;;;2.47;;
3189;SDS011;1606;51.946;10.558;2023-06-04T08:27:04;8.70;;;2.47;;
3189;SDS011;1606;51.946;10.558;2023-06-04T08:29:34;7.57;;;2.43;;
3189;SDS011;1606;51.946;10.558;2023-06-04T08:32:03;7.10;;;2.43;;
3189;SDS011;1606;51.946;10.558;2023-06-04T08:34:31;6.80;;;1.77;;
3189;SDS011;1606;51.946;10.558;2023-06-04T08:36:59;6.03;;;1.93;;
3189;SDS011;1606;51.946;10.558;2023-06-04T08:39:27;7.97;;;2.50;;
3189;SDS011;1606;51.946;10.558;2023-06-04T08:41:58;5.53;;;1.57;;
3189;SDS011;1606;51.946;10.558;2023-06-04T08:44:28;6.40;;;1.70;;
3189;SDS011;1606;51.946;10.558;2023-06-04T08:46:57;9.57;;;1.83;;
3189;SDS011;1606;51.946;10.558;2023-06-04T08:49:30;9.17;;;2.40;;
3189;SDS011;1606;51.946;10.558;2023-06-04T08:52:02;8.73;;;2.57;;
3189;SDS011;1606;51.946;10.558;2023-06-04T08:54:30;6.73;;;1.90;;
3189;SDS011;1606;51.946;10.558;2023-06-04T08:57:01;6.10;;;1.83;;
3189;SDS011;1606;51.946;10.558;2023-06-04T08:59:29;6.97;;;2.13;;
3189;SDS011;1606;51.946;10.558;2023-06-04T09:01:57;7.93;;;1.53;;
3189;SDS011;1606;51.946;10.558;2023-06-04T09:04:26;6.60;;;1.80;;
3189;SDS011;1606;51.946;10.558;2023-06-04T09:06:54;5.80;;;1.93;;
3189;SDS011;1606;51.946;10.558;2023-06-04T09:09:22;7.00;;;1.87;;
3189;SDS011;1606;51.946;10.558;2023-06-04T09:11:52;6.63;;;1.97;;
3189;SDS011;1606;51.946;10.558;2023-06-04T09:14:23;7.07;;;1.73;;
3189;SDS011;1606;51.946;10.558;2023-06-04T09:16:52;6.67;;;1.77;;
3189;SDS011;1606;51.946;10.558;2023-06-04T09:19:21;7.23;;;1.70;;
3189;SDS011;1606;51.946;10.558;2023-06-04T09:21:50;6.43;;;1.83;;
3189;SDS011;1606;51.946;10.558;2023-06-04T09:24:19;5.90;;;2.00;;
3189;SDS011;1606;51.946;10.558;2023-06-04T09:26:47;10.40;;;1.43;;
3189;SDS011;1606;51.946;10.558;2023-06-04T09:29:16;8.33;;;1.80;;
3189;SDS011;1606;51.946;10.558;2023-06-04T09:31:46;6.13;;;1.90;;
3189;SDS011;1606;51.946;10.558;2023-06-04T09:34:15;6.60;;;2.20;;
3189;SDS011;1606;51.946;10.558;2023-06-04T09:36:43;5.60;;;1.60;;
3189;SDS011;1606;51.946;10.558;2023-06-04T09:39:16;6.27;;;1.83;;
3189;SDS011;1606;51.946;10.558;2023-06-04T09:41:44;8.50;;;2.80;;
3189;SDS011;1606;51.946;10.558;2023-06-04T09:44:23;5.73;;;1.50;;
3189;SDS011;1606;51.946;10.558;2023-06-04T09:46:56;5.53;;;1.70;;
3189;SDS011;1606;51.946;10.558;2023-06-04T09:49:25;7.50;;;1.83;;
3189;SDS011;1606;51.946;10.558;2023-06-04T09:51:53;6.00;;;1.70;;
3189;SDS011;1606;51.946;10.558;2023-06-04T09:54:20;8.27;;;2.03;;
3189;SDS011;1606;51.946;10.558;2023-06-04T09:56:48;8.07;;;2.23;;
3189;SDS011;1606;51.946;10.558;2023-06-04T09:59:16;7.53;;;1.57;;
3189;SDS011;1606;51.946;10.558;2023-06-04T10:01:45;6.23;;;1.70;;
3189;SDS011;1606;51.946;10.558;2023-06-04T10:04:15;6.23;;;2.07;;
3189;SDS011;1606;51.946;10.558;2023-06-04T10:06:43;5.73;;;1.83;;
3189;SDS011;1606;51.946;10.558;2023-06-04T10:09:12;5.20;;;1.50;;
3189;SDS011;1606;51.946;10.558;2023-06-04T10:11:41;6.37;;;2.10;;
3189;SDS011;1606;51.946;10.558;2023-06-04T10:14:15;8.97;;;2.23;;
3189;SDS011;1606;51.946;10.558;2023-06-04T10:16:48;6.30;;;1.60;;
3189;SDS011;1606;51.946;10.558;2023-06-04T10:19:19;5.97;;;2.10;;
3189;SDS011;1606;51.946;10.558;2023-06-04T10:21:47;9.43;;;2.03;;
3189;SDS011;1606;51.946;10.558;2023-06-04T10:24:15;6.33;;;1.70;;
3189;SDS011;1606;51.946;10.558;2023-06-04T10:26:43;6.10;;;1.93;;
3189;SDS011;1606;51.946;10.558;2023-06-04T10:29:11;9.73;;;2.63;;
3189;SDS011;1606;51.946;10.558;2023-06-04T10:31:41;6.90;;;1.97;;
3189;SDS011;1606;51.946;10.558;2023-06-04T10:34:11;6.00;;;1.60;;
3189;SDS011;1606;51.946;10.558;2023-06-04T10:36:43;6.40;;;1.80;;
3189;SDS011;1606;51.946;10.558;2023-06-04T10:39:12;7.33;;;2.20;;
3189;SDS011;1606;51.946;10.558;2023-06-04T10:41:40;6.20;;;2.10;;
3189;SDS011;1606;51.946;10.558;2023-06-04T10:44:08;5.40;;;1.50;;
3189;SDS011;1606;51.946;10.558;2023-06-04T10:46:39;5.53;;;1.73;;
3189;SDS011;1606;51.946;10.558;2023-06-04T10:49:09;6.10;;;1.90;;
3189;SDS011;1606;51.946;10.558;2023-06-04T10:51:37;6.07;;;1.87;;
3189;SDS011;1606;51.946;10.558;2023-06-04T10:54:06;5.13;;;1.40;;
3189;SDS011;1606;51.946;10.558;2023-06-04T10:56:34;9.50;;;1.90;;
3189;SDS011;1606;51.946;10.558;2023-06-04T10:59:12;6.17;;;1.70;;
3189;SDS011;1606;51.946;10.558;2023-06-04T11:01:41;10.07;;;2.20;;
3189;SDS011;1606;51.946;10.558;2023-06-04T11:04:17;10.40;;;2.10;;
3189;SDS011;1606;51.946;10.558;2023-06-04T11:06:46;7.53;;;2.20;;
3189;SDS011;1606;51.946;10.558;2023-06-04T11:09:15;5.63;;;1.60;;
3189;SDS011;1606;51.946;10.558;2023-06-04T11:11:55;6.00;;;1.90;;
3189;SDS011;1606;51.946;10.558;2023-06-04T11:14:23;5.47;;;1.40;;
3189;SDS011;1606;51.946;10.558;2023-06-04T11:16:51;6.53;;;1.50;;
3189;SDS011;1606;51.946;10.558;2023-06-04T11:19:19;6.43;;;1.87;;
3189;SDS011;1606;51.946;10.558;2023-06-04T11:21:47;5.57;;;1.90;;
3189;SDS011;1606;51.946;10.558;2023-06-04T11:24:17;9.10;;;2.70;;
3189;SDS011;1606;51.946;10.558;2023-06-04T11:26:44;6.50;;;2.00;;
3189;SDS011;1606;51.946;10.558;2023-06-04T11:29:32;6.43;;;1.90;;
3189;SDS011;1606;51.946;10.558;2023-06-04T11:32:00;5.90;;;1.80;;
3189;SDS011;1606;51.946;10.558;2023-06-04T11:34:28;5.70;;;2.17;;
3189;SDS011;1606;51.946;10.558;2023-06-04T11:37:07;5.63;;;1.60;;
3189;SDS011;1606;51.946;10.558;2023-06-04T11:39:36;5.90;;;1.30;;
3189;SDS011;1606;51.946;10.558;2023-06-04T11:42:06;6.97;;;1.57;;
3189;SDS011;1606;51.946;10.558;2023-06-04T11:44:35;5.97;;;1.80;;
3189;SDS011;1606;51.946;10.558;2023-06-04T11:47:04;5.80;;;1.67;;
3189;SDS011;1606;51.946;10.558;2023-06-04T11:49:33;5.40;;;1.50;;
3189;SDS011;1606;51.946;10.558;2023-06-04T11:52:03;5.47;;;1.80;;
3189;SDS011;1606;51.946;10.558;2023-06-04T11:54:32;5.90;;;1.80;;
3189;SDS011;1606;51.946;10.558;2023-06-04T11:57:05;6.00;;;1.83;;
3189;SDS011;1606;51.946;10.558;2023-06-04T11:59:33;6.93;;;2.00;;
3189;SDS011;1606;51.946;10.558;2023-06-04T12:02:02;15.87;;;1.70;;
3189;SDS011;1606;51.946;10.558;2023-06-04T12:04:30;6.27;;;1.63;;
3189;SDS011;1606;51.946;10.558;2023-06-04T12:06:58;6.90;;;1.70;;
3189;SDS011;1606;51.946;10.558;2023-06-04T12:09:28;6.70;;;2.00;;
3189;SDS011;1606;51.946;10.558;2023-06-04T12:11:59;5.40;;;1.60;;
3189;SDS011;1606;51.946;10.558;2023-06-04T12:14:28;5.57;;;1.63;;
3189;SDS011;1606;51.946;10.558;2023-06-04T12:16:57;6.07;;;1.80;;
3189;SDS011;1606;51.946;10.558;2023-06-04T12:19:26;10.90;;;2.20;;
3189;SDS011;1606;51.946;10.558;2023-06-04T12:22:00;6.30;;;1.40;;
3189;SDS011;1606;51.946;10.558;2023-06-04T12:24:29;9.90;;;1.90;;
3189;SDS011;1606;51.946;10.558;2023-06-04T12:27:01;5.67;;;1.73;;
3189;SDS011;1606;51.946;10.558;2023-06-04T12:29:32;6.00;;;1.60;;
3189;SDS011;1606;51.946;10.558;2023-06-04T12:32:03;6.00;;;1.70;;
3189;SDS011;1606;51.946;10.558;2023-06-04T12:34:37;5.60;;;1.60;;
3189;SDS011;1606;51.946;10.558;2023-06-04T12:37:05;6.33;;;1.63;;
3189;SDS011;1606;51.946;10.558;2023-06-04T12:39:34;6.67;;;1.93;;
3189;SDS011;1606;51.946;10.558;2023-06-04T12:42:03;6.10;;;1.40;;
3189;SDS011;1606;51.946;10.558;2023-06-04T12:44:34;5.53;;;1.73;;
3189;SDS011;1606;51.946;10.558;2023-06-04T12:47:02;5.20;;;1.40;;
3189;SDS011;1606;51.946;10.558;2023-06-04T12:49:31;5.90;;;2.00;;
3189;SDS011;1606;51.946;10.558;2023-06-04T12:51:59;6.83;;;1.80;;
3189;SDS011;1606;51.946;10.558;2023-06-04T12:54:26;5.80;;;1.60;;
3189;SDS011;1606;51.946;10.558;2023-06-04T12:56:54;5.87;;;1.30;;
3189;SDS011;1606;51.946;10.558;2023-06-04T12:59:23;5.00;;;1.50;;
3189;SDS011;1606;51.946;10.558;2023-06-04T13:01:53;5.73;;;1.60;;
3189;SDS011;1606;51.946;10.558;2023-06-04T13:04:21;7.53;;;1.83;;
3189;SDS011;1606;51.946;10.558;2023-06-04T13:06:50;5.07;;;1.60;;
3189;SDS011;1606;51.946;10.558;2023-06-04T13:09:21;6.47;;;1.67;;
3189;SDS011;1606;51.946;10.558;2023-06-04T13:11:49;5.60;;;1.87;;
3189;SDS011;1606;51.946;10.558;2023-06-04T13:14:17;5.60;;;1.37;;
3189;SDS011;1606;51.946;10.558;2023-06-04T13:16:45;5.33;;;1.50;;
3189;SDS011;1606;51.946;10.558;2023-06-04T13:19:16;5.13;;;1.30;;
3189;SDS011;1606;51.946;10.558;2023-06-04T13:21:45;6.00;;;1.73;;
3189;SDS011;1606;51.946;10.558;2023-06-04T13:24:13;7.00;;;2.07;;
3189;SDS011;1606;51.946;10.558;2023-06-04T13:26:42;7.63;;;1.50;;
3189;SDS011;1606;51.946;10.558;2023-06-04T13:29:09;5.87;;;1.60;;
3189;SDS011;1606;51.946;10.558;2023-06-04T13:31:38;8.03;;;2.40;;
3189;SDS011;1606;51.946;10.558;2023-06-04T13:34:07;6.00;;;1.83;;
3189;SDS011;1606;51.946;10.558;2023-06-04T13:36:53;5.57;;;1.50;;
3189;SDS011;1606;51.946;10.558;2023-06-04T13:39:22;5.37;;;1.30;;
3189;SDS011;1606;51.946;10.558;2023-06-04T13:41:49;5.20;;;1.40;;
3189;SDS011;1606;51.946;10.558;2023-06-04T13:44:17;5.90;;;1.60;;
3189;SDS011;1606;51.946;10.558;2023-06-04T13:46:46;5.80;;;1.50;;
3189;SDS011;1606;51.946;10.558;2023-06-04T13:49:14;5.97;;;1.60;;
3189;SDS011;1606;51.946;10.558;2023-06-04T13:51:42;6.10;;;1.90;;
3189;SDS011;1606;51.946;10.558;2023-06-04T13:54:11;5.50;;;1.83;;
3189;SDS011;1606;51.946;10.558;2023-06-04T13:56:39;5.40;;;1.37;;
3189;SDS011;1606;51.946;10.558;2023-06-04T13:59:06;5.70;;;1.80;;
3189;SDS011;1606;51.946;10.558;2023-06-04T14:01:34;7.40;;;1.70;;
3189;SDS011;1606;51.946;10.558;2023-06-04T14:04:03;6.50;;;1.70;;
3189;SDS011;1606;51.946;10.558;2023-06-04T14:06:33;6.10;;;1.90;;
3189;SDS011;1606;51.946;10.558;2023-06-04T14:09:02;5.90;;;1.70;;
3189;SDS011;1606;51.946;10.558;2023-06-04T14:11:31;6.27;;;2.07;;
3189;SDS011;1606;51.946;10.558;2023-06-04T14:14:00;5.43;;;1.60;;
3189;SDS011;1606;51.946;10.558;2023-06-04T14:16:28;5.30;;;1.50;;
3189;SDS011;1606;51.946;10.558;2023-06-04T14:18:56;5.50;;;1.70;;
3189;SDS011;1606;51.946;10.558;2023-06-04T14:21:23;7.10;;;1.70;;
3189;SDS011;1606;51.946;10.558;2023-06-04T14:23:51;7.37;;;2.30;;
3189;SDS011;1606;51.946;10.558;2023-06-04T14:26:20;5.77;;;1.57;;
3189;SDS011;1606;51.946;10.558;2023-06-04T14:28:49;5.57;;;1.57;;
3189;SDS011;1606;51.946;10.558;2023-06-04T14:31:17;6.03;;;1.77;;
3189;SDS011;1606;51.946;10.558;2023-06-04T14:33:45;5.37;;;1.40;;
3189;SDS011;1606;51.946;10.558;2023-06-04T14:36:13;6.23;;;2.27;;
3189;SDS011;1606;51.946;10.558;2023-06-04T14:38:41;5.83;;;1.83;;
3189;SDS011;1606;51.946;10.558;2023-06-04T14:41:09;5.88;;;1.50;;
3189;SDS011;1606;51.946;10.558;2023-06-04T14:43:38;5.53;;;1.83;;
3189;SDS011;1606;51.946;10.558;2023-06-04T14:46:07;7.40;;;1.77;;
3189;SDS011;1606;51.946;10.558;2023-06-04T14:48:35;6.33;;;1.90;;
3189;SDS011;1606;51.946;10.558;2023-06-04T14:51:03;5.70;;;1.70;;
3189;SDS011;1606;51.946;10.558;2023-06-04T14:53:31;5.80;;;1.73;;
3189;SDS011;1606;51.946;10.558;2023-06-04T14:55:59;6.00;;;1.60;;
3189;SDS011;1606;51.946;10.558;2023-06-04T14:58:27;6.67;;;1.93;;
3189;SDS011;1606;51.946;10.558;2023-06-04T15:00:55;5.77;;;1.77;;
3189;SDS011;1606;51.946;10.558;2023-06-04T15:03:31;5.50;;;1.97;;
3189;SDS011;1606;51.946;10.558;2023-06-04T15:05:59;7.40;;;1.70;;
3189;SDS011;1606;51.946;10.558;2023-06-04T15:08:45;7.27;;;1.93;;
3189;SDS011;1606;51.946;10.558;2023-06-04T15:11:13;6.50;;;1.83;;
3189;SDS011;1606;51.946;10.558;2023-06-04T15:13:42;5.67;;;1.70;;